Time;durP1;ratioP1;P1;durP2;ratioP2;P2;SDS_P1;SDS_P2;PMS_P1;PMS_P2;Temp;Humidity;BMP_temperature;BMP_pressure;BME280_temperature;BME280_humidity;BME280_pressure;Samples;Min_cycle;Max_cycle;Signal;HPM_P1;HPM_P2
2022/10/25 00:00:52;;;;;;;4.07;1.60;;;14.80;88.70;;;;;;5051198;28;20468;-35
2022/10/25 00:03:18;;;;;;;4.13;1.60;;;14.80;88.70;;;;;;5051342;28;20461;-32
2022/10/25 00:05:43;;;;;;;4.13;1.67;;;14.80;88.80;;;;;;5052358;28;20377;-33
2022/10/25 00:08:09;;;;;;;3.78;1.58;;;14.80;88.80;;;;;;5055474;28;20028;-33
2022/10/25 00:10:35;;;;;;;5.13;1.63;;;14.80;88.80;;;;;;5055698;28;20021;-35
2022/10/25 00:13:01;;;;;;;4.25;1.80;;;14.80;88.90;;;;;;5054071;28;20013;-33
2022/10/25 00:15:26;;;;;;;4.32;1.92;;;14.80;88.90;;;;;;5055687;28;20013;-33
2022/10/25 00:17:52;;;;;;;3.90;1.73;;;14.80;88.90;;;;;;5055321;28;20037;-32
2022/10/25 00:20:18;;;;;;;4.00;1.83;;;14.80;88.90;;;;;;5055077;28;20052;-33
2022/10/25 00:22:44;;;;;;;3.92;2.00;;;14.80;88.90;;;;;;5055280;28;20062;-33
2022/10/25 00:25:10;;;;;;;3.95;2.08;;;14.80;88.90;;;;;;5055092;28;20440;-33
2022/10/25 00:27:36;;;;;;;5.03;2.03;;;14.80;88.90;;;;;;5055121;28;20118;-34
2022/10/25 00:30:03;;;;;;;3.08;1.80;;;14.80;88.90;;;;;;5054948;28;20100;-38
2022/10/25 00:32:28;;;;;;;3.80;2.00;;;14.80;88.90;;;;;;5055047;28;20025;-33
2022/10/25 00:34:54;;;;;;;4.57;2.03;;;14.80;88.90;;;;;;5054928;28;20017;-33
2022/10/25 00:37:20;;;;;;;4.95;2.00;;;14.80;88.90;;;;;;5054672;28;20078;-33
2022/10/25 00:39:46;;;;;;;3.47;2.10;;;14.80;88.90;;;;;;5054836;28;20071;-33
2022/10/25 00:42:24;;;;;;;5.20;2.00;;;14.80;88.90;;;;;;5054824;28;20023;-33
2022/10/25 00:44:55;;;;;;;4.70;2.00;;;14.80;88.90;;;;;;5054612;28;20087;-33
2022/10/25 00:47:21;;;;;;;4.38;2.20;;;14.80;88.90;;;;;;5054323;28;20017;-33
2022/10/25 00:50:10;;;;;;;3.83;2.33;;;14.80;88.90;;;;;;5054387;28;20025;-34
2022/10/25 00:52:37;;;;;;;4.47;2.10;;;14.80;88.90;;;;;;5054341;28;20033;-33
2022/10/25 00:55:05;;;;;;;5.32;2.42;;;14.80;88.90;;;;;;5054240;28;20078;-34
2022/10/25 00:57:36;;;;;;;6.63;2.20;;;14.80;88.90;;;;;;5054213;28;20029;-37
2022/10/25 01:00:05;;;;;;;4.40;2.40;;;14.80;88.90;;;;;;5053720;28;20049;-32
2022/10/25 01:02:30;;;;;;;4.75;2.38;;;14.80;88.90;;;;;;5052907;28;20021;-38
2022/10/25 01:04:57;;;;;;;3.50;2.08;;;14.80;88.90;;;;;;5052983;28;20029;-34
2022/10/25 01:07:22;;;;;;;6.15;2.10;;;14.80;88.90;;;;;;5052567;28;20104;-33
2022/10/25 01:09:50;;;;;;;5.32;2.75;;;14.80;88.90;;;;;;5052805;28;20096;-33
2022/10/25 01:12:15;;;;;;;3.97;2.47;;;14.80;88.90;;;;;;5052852;28;20013;-33
2022/10/25 01:14:47;;;;;;;3.83;2.60;;;14.80;88.90;;;;;;5052881;28;20028;-33
2022/10/25 01:17:18;;;;;;;5.75;2.58;;;14.90;88.90;;;;;;5052337;28;20468;-33
2022/10/25 01:20:02;;;;;;;4.57;2.70;;;14.90;88.90;;;;;;5052657;28;20021;-33
2022/10/25 01:22:40;;;;;;;4.95;2.80;;;14.90;88.90;;;;;;5053057;28;20096;-33
2022/10/25 01:25:18;;;;;;;5.07;2.55;;;14.90;88.90;;;;;;5051387;28;20029;-33
2022/10/25 01:27:54;;;;;;;4.38;2.45;;;14.90;88.80;;;;;;5052751;28;20506;-34
2022/10/25 01:30:24;;;;;;;7.78;3.08;;;14.90;88.80;;;;;;5052602;28;20041;-33
2022/10/25 01:33:00;;;;;;;6.47;2.53;;;14.90;88.80;;;;;;5052796;28;20028;-33
2022/10/25 01:35:30;;;;;;;5.55;2.80;;;14.90;88.80;;;;;;5052441;28;20017;-34
2022/10/25 01:38:20;;;;;;;4.30;2.80;;;14.90;88.90;;;;;;5052419;28;20033;-34
2022/10/25 01:40:50;;;;;;;7.88;2.85;;;14.90;88.90;;;;;;5052348;28;20077;-32
2022/10/25 01:43:40;;;;;;;5.63;2.70;;;14.90;88.90;;;;;;5052287;28;20041;-33
2022/10/25 01:46:27;;;;;;;5.65;2.50;;;14.90;88.90;;;;;;5052264;28;20025;-34
2022/10/25 01:49:17;;;;;;;4.97;2.58;;;14.90;88.90;;;;;;5052086;28;20094;-33
2022/10/25 01:51:43;;;;;;;6.10;2.63;;;14.90;88.90;;;;;;5052177;28;20062;-33
2022/10/25 01:54:23;;;;;;;5.13;2.40;;;14.90;88.80;;;;;;5052039;28;20024;-33
2022/10/25 01:57:26;;;;;;;5.72;2.70;;;15.00;88.90;;;;;;5052143;28;20413;-33
2022/10/25 01:59:52;;;;;;;6.93;2.90;;;14.90;88.80;;;;;;5015132;28;1057596;-33
2022/10/25 02:02:58;;;;;;;5.55;2.50;;;14.90;88.90;;;;;;5053002;28;20448;-33
2022/10/25 02:05:27;;;;;;;6.72;2.55;;;14.90;88.90;;;;;;5046688;28;20049;-35
2022/10/25 02:08:05;;;;;;;10.43;2.60;;;14.90;88.90;;;;;;5052867;28;20025;-34
2022/10/25 02:10:37;;;;;;;9.05;2.90;;;14.90;88.90;;;;;;5052927;28;20025;-35
2022/10/25 02:13:08;;;;;;;6.80;2.17;;;15.00;89.00;;;;;;5053100;28;20036;-35
2022/10/25 02:15:54;;;;;;;5.72;2.60;;;15.00;89.00;;;;;;5052990;28;20048;-35
2022/10/25 02:18:23;;;;;;;4.20;2.30;;;15.00;89.00;;;;;;5052905;28;20079;-35
2022/10/25 02:20:51;;;;;;;7.25;2.53;;;15.00;88.90;;;;;;5052681;28;20120;-33
2022/10/25 02:23:18;;;;;;;7.75;2.35;;;15.00;89.00;;;;;;5052604;28;20476;-35
2022/10/25 02:25:46;;;;;;;5.97;2.10;;;15.00;89.00;;;;;;5052640;28;20044;-44
2022/10/25 02:28:14;;;;;;;5.55;2.08;;;15.00;88.90;;;;;;5051557;28;20528;-42
2022/10/25 02:30:42;;;;;;;7.88;2.50;;;15.00;89.00;;;;;;5052361;28;20040;-44
2022/10/25 02:33:09;;;;;;;8.55;2.55;;;15.00;89.00;;;;;;5052380;28;20021;-44
2022/10/25 02:35:35;;;;;;;6.43;2.65;;;15.00;89.00;;;;;;5052299;28;20017;-43
2022/10/25 02:38:02;;;;;;;6.47;2.33;;;15.00;89.00;;;;;;5052233;28;20087;-44
2022/10/25 02:40:27;;;;;;;7.95;2.35;;;15.00;89.00;;;;;;5052109;28;20680;-45
2022/10/25 02:42:53;;;;;;;9.68;2.50;;;15.00;89.00;;;;;;5052375;28;20025;-45
2022/10/25 02:45:19;;;;;;;7.07;2.63;;;15.00;89.00;;;;;;5052024;28;20021;-43
2022/10/25 02:47:44;;;;;;;5.68;2.58;;;15.00;89.00;;;;;;5051907;28;20028;-45
2022/10/25 02:50:10;;;;;;;6.40;2.60;;;15.00;89.00;;;;;;5052110;28;20074;-43
2022/10/25 02:52:36;;;;;;;9.75;3.10;;;15.00;89.60;;;;;;5052444;28;20033;-44
2022/10/25 02:55:01;;;;;;;7.65;2.90;;;15.00;89.00;;;;;;5052139;28;20025;-41
2022/10/25 02:57:32;;;;;;;7.65;2.85;;;15.00;89.00;;;;;;5051986;28;20390;-43
2022/10/25 02:59:58;;;;;;;8.00;3.03;;;15.00;89.00;;;;;;5051562;28;20079;-43
2022/10/25 03:02:23;;;;;;;7.53;3.17;;;15.00;89.00;;;;;;5051776;28;20029;-44
2022/10/25 03:04:49;;;;;;;7.90;3.17;;;15.00;89.00;;;;;;5051799;28;20025;-43
2022/10/25 03:07:14;;;;;;;7.38;3.15;;;15.00;89.00;;;;;;5051727;28;20052;-44
2022/10/25 03:09:40;;;;;;;6.53;3.22;;;15.00;89.00;;;;;;5051648;28;20036;-40
2022/10/25 03:12:06;;;;;;;10.40;3.40;;;15.00;89.00;;;;;;5050289;28;20049;-43
2022/10/25 03:14:31;;;;;;;7.97;3.08;;;15.00;89.00;;;;;;5051788;28;20029;-44
2022/10/25 03:16:57;;;;;;;7.60;3.22;;;15.00;88.90;;;;;;5051665;28;20021;-44
2022/10/25 03:19:22;;;;;;;8.73;3.42;;;15.00;88.90;;;;;;5051358;28;20063;-44
2022/10/25 03:21:48;;;;;;;9.35;3.40;;;15.00;88.90;;;;;;5050082;28;20056;-44
2022/10/25 03:24:13;;;;;;;9.77;3.30;;;15.00;88.90;;;;;;5049889;28;20127;-44
2022/10/25 03:26:39;;;;;;;5.40;3.20;;;15.00;88.90;;;;;;5050064;28;20025;-39
2022/10/25 03:29:04;;;;;;;8.65;4.53;;;15.00;88.90;;;;;;5051300;28;20040;-44
2022/10/25 03:31:30;;;;;;;7.50;3.30;;;15.00;88.90;;;;;;5051241;28;20420;-43
2022/10/25 03:33:55;;;;;;;9.13;3.53;;;15.00;88.90;;;;;;5051309;28;20108;-44
2022/10/25 03:36:21;;;;;;;7.38;3.25;;;15.00;88.90;;;;;;5051301;28;20024;-44
2022/10/25 03:38:47;;;;;;;10.02;3.35;;;15.00;88.80;;;;;;5051504;28;20025;-27
2022/10/25 03:41:12;;;;;;;9.48;3.45;;;15.00;88.90;;;;;;5051010;28;20040;-30
2022/10/25 03:43:38;;;;;;;9.57;3.45;;;15.00;88.80;;;;;;5049840;28;20504;-31
2022/10/25 03:46:03;;;;;;;10.48;4.07;;;15.00;88.80;;;;;;5051185;28;20112;-32
2022/10/25 03:48:29;;;;;;;7.20;3.20;;;15.00;88.80;;;;;;5051085;28;20044;-28
2022/10/25 03:50:55;;;;;;;7.78;3.38;;;15.00;88.80;;;;;;5051033;28;20017;-30
2022/10/25 03:53:20;;;;;;;6.95;3.38;;;15.00;88.80;;;;;;5051182;28;20021;-35
2022/10/25 03:55:47;;;;;;;7.65;3.70;;;15.00;88.80;;;;;;5051308;28;20025;-35
2022/10/25 03:58:12;;;;;;;10.07;3.97;;;15.00;88.80;;;;;;5051065;28;20039;-35
2022/10/25 04:00:38;;;;;;;9.45;3.80;;;15.00;88.80;;;;;;5051231;28;20049;-35
2022/10/25 04:03:03;;;;;;;8.90;4.00;;;15.00;88.80;;;;;;5051241;28;20029;-34
2022/10/25 04:05:30;;;;;;;10.80;3.55;;;15.00;88.70;;;;;;5051297;28;20082;-34
2022/10/25 04:07:56;;;;;;;10.40;3.60;;;15.00;88.70;;;;;;5051342;28;20108;-35
2022/10/25 04:10:21;;;;;;;5.90;3.10;;;15.00;88.70;;;;;;5051136;28;20079;-43
2022/10/25 04:12:47;;;;;;;7.78;3.78;;;15.00;88.70;;;;;;5050984;28;20530;-35
2022/10/25 04:15:14;;;;;;;6.70;3.80;;;15.00;88.70;;;;;;5050788;28;20392;-35
2022/10/25 04:17:39;;;;;;;8.65;3.67;;;15.00;88.70;;;;;;5051008;28;20575;-35
2022/10/25 04:20:06;;;;;;;7.47;3.40;;;15.00;88.70;;;;;;5050807;28;20055;-35
2022/10/25 04:22:32;;;;;;;6.53;3.30;;;15.00;88.70;;;;;;5050890;28;20122;-35
2022/10/25 04:24:57;;;;;;;6.60;3.03;;;15.00;88.60;;;;;;5050850;28;20349;-35
2022/10/25 04:27:23;;;;;;;7.05;3.10;;;15.00;88.60;;;;;;5050739;28;20485;-35
2022/10/25 04:29:48;;;;;;;9.27;3.00;;;15.00;88.60;;;;;;5050914;28;20103;-35
2022/10/25 04:32:14;;;;;;;9.85;3.40;;;15.00;88.60;;;;;;5050552;28;20171;-29
2022/10/25 04:34:39;;;;;;;10.18;3.40;;;15.00;88.50;;;;;;5050724;28;20017;-32
2022/10/25 04:37:05;;;;;;;6.45;3.38;;;14.90;88.50;;;;;;5050986;28;20021;-35
2022/10/25 04:39:31;;;;;;;6.78;3.10;;;15.00;88.50;;;;;;5051148;28;20032;-31
2022/10/25 04:41:56;;;;;;;11.30;3.50;;;15.00;88.50;;;;;;5051167;28;20029;-27
2022/10/25 04:44:22;;;;;;;6.30;3.00;;;15.00;88.50;;;;;;5050853;28;20033;-32
2022/10/25 04:46:47;;;;;;;8.50;3.25;;;15.00;88.50;;;;;;5050748;28;20033;-26
2022/10/25 04:49:14;;;;;;;8.43;3.35;;;15.00;88.50;;;;;;5050670;28;20040;-28
2022/10/25 04:51:40;;;;;;;6.75;3.00;;;15.00;88.50;;;;;;5051316;28;20051;-30
2022/10/25 04:54:05;;;;;;;8.55;2.90;;;15.00;89.10;;;;;;5054258;28;20071;-31
2022/10/25 04:56:31;;;;;;;7.53;3.13;;;15.00;88.40;;;;;;5052677;28;20024;-31
2022/10/25 04:58:58;;;;;;;6.43;2.97;;;14.90;88.40;;;;;;5054123;28;20031;-28
2022/10/25 05:01:23;;;;;;;7.63;3.50;;;15.00;88.40;;;;;;5053923;28;20063;-27
2022/10/25 05:03:49;;;;;;;5.45;3.60;;;15.00;88.40;;;;;;5054111;28;20222;-28
2022/10/25 05:06:16;;;;;;;7.97;3.45;;;15.00;88.50;;;;;;5054327;28;20112;-27
2022/10/25 05:08:44;;;;;;;7.18;3.35;;;14.90;88.40;;;;;;5053971;28;20025;-29
2022/10/25 05:11:12;;;;;;;6.55;3.38;;;15.00;88.50;;;;;;5053991;28;20025;-27
2022/10/25 05:13:38;;;;;;;6.50;3.65;;;15.00;88.50;;;;;;5054302;28;20063;-28
2022/10/25 05:16:05;;;;;;;7.38;3.45;;;15.00;88.50;;;;;;5054087;28;20021;-47
2022/10/25 05:18:31;;;;;;;5.38;3.20;;;15.00;88.50;;;;;;5053987;28;20147;-43
2022/10/25 05:21:00;;;;;;;8.25;3.53;;;15.00;88.50;;;;;;5053972;28;20021;-45
2022/10/25 05:23:26;;;;;;;7.85;3.60;;;14.90;88.40;;;;;;5052391;28;20032;-43
2022/10/25 05:26:05;;;;;;;8.32;3.35;;;14.90;88.40;;;;;;5053828;28;20092;-44
2022/10/25 05:28:32;;;;;;;8.10;3.42;;;14.90;88.50;;;;;;5053912;28;20484;-42
2022/10/25 05:31:03;;;;;;;10.05;4.65;;;14.90;88.40;;;;;;5053881;28;20025;-44
2022/10/25 05:33:28;;;;;;;6.75;3.40;;;14.90;88.40;;;;;;5053556;28;20396;-46
2022/10/25 05:35:54;;;;;;;5.53;3.25;;;14.90;88.50;;;;;;5053554;28;20025;-45
2022/10/25 05:38:19;;;;;;;6.72;3.47;;;14.90;88.50;;;;;;5053653;28;20029;-42
2022/10/25 05:40:52;;;;;;;4.78;3.47;;;14.90;88.50;;;;;;5053634;28;20032;-44
2022/10/25 05:43:18;;;;;;;5.50;2.88;;;14.80;88.50;;;;;;5053605;28;20025;-44
2022/10/25 05:45:43;;;;;;;5.00;2.85;;;14.80;88.50;;;;;;5053685;28;20033;-45
2022/10/25 05:48:09;;;;;;;9.18;3.30;;;14.80;88.40;;;;;;5053605;28;20077;-44
2022/10/25 05:50:34;;;;;;;7.75;3.17;;;14.80;88.50;;;;;;5053818;28;20025;-44
2022/10/25 05:53:00;;;;;;;6.57;3.00;;;14.80;88.50;;;;;;5053660;28;20024;-42
2022/10/25 05:55:25;;;;;;;6.53;2.95;;;14.80;88.50;;;;;;5053548;28;20048;-44
2022/10/25 05:57:51;;;;;;;5.97;3.03;;;14.80;88.50;;;;;;5053228;28;20493;-42
2022/10/25 06:00:17;;;;;;;6.57;3.10;;;14.80;88.50;;;;;;5053198;28;20052;-45
2022/10/25 06:02:42;;;;;;;8.77;3.47;;;14.70;88.50;;;;;;5052718;28;20025;-44
2022/10/25 06:05:08;;;;;;;4.88;3.13;;;14.70;88.50;;;;;;5052578;28;20067;-45
2022/10/25 06:07:34;;;;;;;7.35;2.80;;;14.70;88.60;;;;;;5053273;28;20028;-42
2022/10/25 06:09:59;;;;;;;4.95;2.60;;;14.70;88.60;;;;;;5053138;28;20152;-45
2022/10/25 06:12:25;;;;;;;5.47;2.53;;;14.70;88.60;;;;;;5053272;28;20021;-41
2022/10/25 06:14:50;;;;;;;7.05;2.97;;;14.70;88.60;;;;;;5053102;28;20021;-43
2022/10/25 06:17:16;;;;;;;5.43;2.80;;;14.70;88.60;;;;;;5053017;28;20025;-45
2022/10/25 06:19:41;;;;;;;5.40;2.75;;;14.70;88.60;;;;;;5052928;28;20047;-44
2022/10/25 06:22:07;;;;;;;4.75;2.40;;;14.60;88.60;;;;;;5052807;28;20465;-45
2022/10/25 06:24:32;;;;;;;7.40;3.25;;;14.70;88.60;;;;;;5052804;28;20029;-44
2022/10/25 06:26:58;;;;;;;8.75;3.17;;;14.60;88.70;;;;;;5052803;28;20119;-44
2022/10/25 06:29:24;;;;;;;6.13;3.20;;;14.70;88.70;;;;;;5052772;28;20036;-43
2022/10/25 06:31:49;;;;;;;6.13;3.08;;;14.60;88.60;;;;;;5052732;28;20116;-40
2022/10/25 06:34:15;;;;;;;5.75;3.50;;;14.60;88.60;;;;;;5052761;28;20021;-44
2022/10/25 06:36:40;;;;;;;8.10;3.05;;;14.60;88.60;;;;;;5052468;28;20410;-43
2022/10/25 06:39:06;;;;;;;4.63;2.65;;;14.60;88.60;;;;;;5052565;28;20025;-43
2022/10/25 06:41:31;;;;;;;4.97;2.90;;;14.60;88.70;;;;;;5052546;28;20479;-43
2022/10/25 06:43:59;;;;;;;5.80;3.10;;;14.60;88.70;;;;;;5052556;28;20185;-43
2022/10/25 06:46:26;;;;;;;9.50;3.30;;;14.60;88.70;;;;;;5052273;28;20335;-40
2022/10/25 06:48:54;;;;;;;6.03;2.88;;;14.60;88.70;;;;;;5052495;28;20025;-44
2022/10/25 06:51:20;;;;;;;8.43;3.05;;;14.60;88.70;;;;;;5052528;28;20095;-44
2022/10/25 06:53:47;;;;;;;6.70;3.45;;;14.60;88.70;;;;;;5052267;28;20032;-43
2022/10/25 06:56:13;;;;;;;6.57;3.40;;;14.60;88.70;;;;;;5052252;28;20017;-44
2022/10/25 06:58:39;;;;;;;5.40;3.00;;;14.60;88.70;;;;;;5052390;28;20388;-44
2022/10/25 07:01:07;;;;;;;6.70;3.30;;;14.60;88.70;;;;;;5052265;28;20049;-42
2022/10/25 07:03:34;;;;;;;6.07;3.00;;;14.60;89.20;;;;;;5052441;28;20087;-43
2022/10/25 07:06:05;;;;;;;8.50;3.15;;;14.60;88.60;;;;;;5052648;28;20028;-43
2022/10/25 07:08:31;;;;;;;4.47;2.97;;;14.60;88.60;;;;;;5050635;28;20025;-41
2022/10/25 07:10:57;;;;;;;5.57;3.20;;;14.60;88.60;;;;;;5052012;28;20079;-45
2022/10/25 07:13:23;;;;;;;5.32;2.80;;;14.60;88.60;;;;;;5052092;28;20029;-40
2022/10/25 07:15:48;;;;;;;7.40;3.20;;;14.60;88.50;;;;;;5051516;28;20499;-43
2022/10/25 07:18:14;;;;;;;6.95;3.15;;;14.60;88.50;;;;;;5051975;28;20025;-40
2022/10/25 07:20:40;;;;;;;6.10;3.33;;;14.60;88.50;;;;;;5051522;28;20029;-41
2022/10/25 07:23:05;;;;;;;5.35;2.92;;;14.60;88.50;;;;;;5051817;28;20064;-42
2022/10/25 07:25:31;;;;;;;4.85;2.90;;;14.60;88.40;;;;;;5051883;28;20087;-37
2022/10/25 07:27:56;;;;;;;6.47;3.13;;;14.70;88.50;;;;;;5051730;28;20112;-41
2022/10/25 07:30:22;;;;;;;4.03;2.70;;;14.70;88.40;;;;;;5051920;28;20056;-46
2022/10/25 07:32:48;;;;;;;5.82;2.97;;;14.70;88.40;;;;;;5051882;28;20468;-39
2022/10/25 07:35:13;;;;;;;6.85;3.20;;;14.70;88.30;;;;;;5051890;28;20116;-43
2022/10/25 07:37:39;;;;;;;3.97;2.95;;;14.80;88.30;;;;;;5052028;28;20032;-42
2022/10/25 07:40:05;;;;;;;5.22;3.20;;;14.90;88.30;;;;;;5051826;28;20021;-41
2022/10/25 07:42:31;;;;;;;3.70;2.80;;;14.90;88.10;;;;;;5051941;28;20484;-40
2022/10/25 07:44:56;;;;;;;6.10;3.20;;;15.00;88.00;;;;;;5051807;28;20018;-43
2022/10/25 07:47:22;;;;;;;4.75;3.40;;;15.00;88.00;;;;;;5051725;28;20113;-39
2022/10/25 07:49:47;;;;;;;6.38;3.17;;;15.00;87.80;;;;;;5051629;28;20029;-41
2022/10/25 07:52:13;;;;;;;4.80;3.10;;;15.10;87.80;;;;;;5051744;28;20163;-38
2022/10/25 07:54:38;;;;;;;7.97;3.38;;;15.10;87.80;;;;;;5051822;28;20078;-43
2022/10/25 07:57:05;;;;;;;5.05;3.15;;;15.00;87.70;;;;;;5051701;28;20036;-40
2022/10/25 07:59:31;;;;;;;5.60;3.03;;;15.10;87.70;;;;;;5051668;28;20025;-42
2022/10/25 08:01:57;;;;;;;6.28;3.38;;;15.10;87.60;;;;;;5051655;28;20036;-42
2022/10/25 08:04:22;;;;;;;4.07;3.40;;;15.10;87.50;;;;;;5050475;28;20025;-40
2022/10/25 08:06:48;;;;;;;7.32;3.58;;;15.10;87.40;;;;;;5051673;28;20029;-43
2022/10/25 08:09:13;;;;;;;5.75;3.72;;;15.00;87.40;;;;;;5051495;28;20488;-41
2022/10/25 08:11:39;;;;;;;8.77;4.32;;;15.10;87.60;;;;;;5051580;28;20025;-42
2022/10/25 08:14:05;;;;;;;5.97;3.80;;;15.10;87.40;;;;;;5051455;28;20074;-40
2022/10/25 08:16:30;;;;;;;5.72;3.55;;;15.10;87.40;;;;;;5052026;28;20013;-42
2022/10/25 08:18:56;;;;;;;8.65;3.38;;;15.10;87.30;;;;;;5051578;28;20348;-40
2022/10/25 08:21:21;;;;;;;5.15;3.55;;;15.20;87.30;;;;;;5051716;28;20030;-41
2022/10/25 08:23:47;;;;;;;5.10;3.42;;;15.20;87.30;;;;;;5051331;28;20028;-42
2022/10/25 08:26:12;;;;;;;6.80;3.25;;;15.20;87.30;;;;;;5051349;28;20462;-41
2022/10/25 08:28:38;;;;;;;6.93;3.80;;;15.20;87.20;;;;;;5055240;28;20033;-44
2022/10/25 08:31:04;;;;;;;6.75;3.90;;;15.30;87.20;;;;;;5055475;28;20017;-39
2022/10/25 08:33:29;;;;;;;6.07;4.05;;;15.30;87.20;;;;;;5055211;28;20393;-41
2022/10/25 08:35:58;;;;;;;5.30;3.60;;;15.30;87.10;;;;;;5055216;28;20067;-41
2022/10/25 08:38:24;;;;;;;7.78;4.20;;;15.30;87.00;;;;;;5055273;28;20396;-42
2022/10/25 08:41:16;;;;;;;6.20;4.68;;;15.40;87.00;;;;;;5055314;28;20031;-34
2022/10/25 08:44:04;;;;;;;6.70;3.83;;;15.50;86.80;;;;;;5054671;28;20602;-33
2022/10/25 08:46:36;;;;;;;7.75;4.90;;;15.50;86.70;;;;;;5054866;28;20387;-34
2022/10/25 08:49:39;;;;;;;9.38;4.80;;;15.50;86.50;;;;;;5055138;28;20452;-35
2022/10/25 08:52:14;;;;;;;7.10;4.90;;;15.50;86.40;;;;;;5055016;28;20384;-34
2022/10/25 08:54:43;;;;;;;10.45;5.88;;;15.60;86.40;;;;;;5055098;28;20414;-34
2022/10/25 08:57:39;;;;;;;10.43;5.70;;;15.60;86.40;;;;;;5055136;28;20036;-35
2022/10/25 09:00:12;;;;;;;8.45;5.88;;;15.50;86.30;;;;;;5050350;28;20450;-40
2022/10/25 09:02:54;;;;;;;10.90;6.28;;;15.50;86.40;;;;;;5054913;28;20107;-34
2022/10/25 09:05:36;;;;;;;8.70;5.93;;;15.50;86.50;;;;;;5054981;28;20444;-35
2022/10/25 09:08:14;;;;;;;8.00;6.30;;;15.50;86.50;;;;;;5054749;28;20028;-40
2022/10/25 09:10:47;;;;;;;10.23;6.03;;;15.50;86.50;;;;;;5054976;28;20374;-34
2022/10/25 09:13:25;;;;;;;10.65;7.18;;;15.50;86.40;;;;;;5055065;28;20515;-35
2022/10/25 09:16:17;;;;;;;9.63;6.63;;;15.60;86.20;;;;;;5054912;28;20541;-37
2022/10/25 09:18:57;;;;;;;8.20;6.72;;;15.60;86.20;;;;;;5054676;28;20047;-33
2022/10/25 09:21:34;;;;;;;9.35;6.68;;;15.70;86.10;;;;;;5054350;28;20025;-34
2022/10/25 09:24:04;;;;;;;8.85;6.70;;;15.70;86.00;;;;;;5054497;28;20036;-36
2022/10/25 09:26:46;;;;;;;9.52;7.03;;;15.80;85.90;;;;;;5052931;28;20035;-34
2022/10/25 09:29:36;;;;;;;9.32;6.60;;;15.80;85.90;;;;;;5054580;28;20389;-33
2022/10/25 09:32:10;;;;;;;10.20;7.35;;;15.80;85.60;;;;;;5054183;28;20106;-32
2022/10/25 09:34:36;;;;;;;9.77;7.28;;;15.90;85.60;;;;;;5054485;28;20021;-33
2022/10/25 09:37:25;;;;;;;9.57;6.32;;;15.90;85.60;;;;;;5054221;28;20028;-33
2022/10/25 09:39:55;;;;;;;8.82;6.63;;;15.90;85.40;;;;;;5054018;28;20028;-35
2022/10/25 09:42:35;;;;;;;10.68;6.95;;;15.90;85.20;;;;;;5054039;28;20035;-33
2022/10/25 09:45:06;;;;;;;9.45;7.10;;;15.90;85.20;;;;;;5052563;28;20036;-34
2022/10/25 09:47:42;;;;;;;8.98;6.72;;;15.90;85.20;;;;;;5053870;28;20065;-35
2022/10/25 09:50:30;;;;;;;11.48;7.15;;;16.00;85.30;;;;;;5053968;28;20108;-35
2022/10/25 09:53:16;;;;;;;9.45;6.40;;;16.00;85.20;;;;;;5054106;28;20029;-34
2022/10/25 09:56:00;;;;;;;8.55;6.13;;;16.00;85.00;;;;;;5053804;28;20072;-41
2022/10/25 09:58:31;;;;;;;11.63;6.32;;;16.00;84.90;;;;;;5054190;28;20029;-35
2022/10/25 10:01:00;;;;;;;10.32;6.40;;;16.00;84.90;;;;;;5053752;28;20045;-35
2022/10/25 10:03:35;;;;;;;7.55;6.63;;;16.00;85.10;;;;;;5053753;28;20078;-34
2022/10/25 10:06:35;;;;;;;8.70;6.75;;;15.90;85.10;;;;;;5053901;28;20031;-35
2022/10/25 10:09:12;;;;;;;6.80;6.07;;;15.90;85.10;;;;;;5052183;28;20080;-34
2022/10/25 10:11:40;;;;;;;10.05;6.72;;;15.90;85.00;;;;;;5053647;28;20116;-35
2022/10/25 10:14:15;;;;;;;10.48;6.30;;;16.00;85.00;;;;;;5053760;28;20134;-36
2022/10/25 10:16:48;;;;;;;9.40;6.50;;;16.00;85.60;;;;;;5053403;28;20021;-34
2022/10/25 10:19:20;;;;;;;9.07;5.95;;;16.00;84.90;;;;;;5053283;28;20053;-34
2022/10/25 10:21:55;;;;;;;9.50;6.30;;;16.00;84.80;;;;;;5053414;28;20087;-34
2022/10/25 10:24:33;;;;;;;7.78;6.20;;;16.10;84.80;;;;;;5053543;28;20040;-34
2022/10/25 10:27:12;;;;;;;8.10;5.82;;;16.20;84.80;;;;;;5053187;28;20067;-35
2022/10/25 10:29:55;;;;;;;11.70;6.25;;;16.20;84.60;;;;;;5053087;28;20062;-33
2022/10/25 10:32:25;;;;;;;10.15;6.60;;;16.30;84.60;;;;;;5053303;28;20060;-31
2022/10/25 10:34:55;;;;;;;9.00;6.38;;;16.30;84.50;;;;;;5053087;28;20049;-32
2022/10/25 10:37:26;;;;;;;9.60;6.30;;;16.30;84.50;;;;;;5053182;28;20021;-33
2022/10/25 10:40:02;;;;;;;9.40;6.63;;;16.30;84.50;;;;;;5053192;28;20044;-34
2022/10/25 10:42:33;;;;;;;8.95;6.22;;;16.20;84.50;;;;;;5053119;28;20036;-31
2022/10/25 10:45:08;;;;;;;8.32;5.95;;;16.30;84.40;;;;;;5053024;28;20028;-34
2022/10/25 10:47:49;;;;;;;7.75;6.18;;;16.30;84.30;;;;;;5052748;28;20056;-38
2022/10/25 10:50:27;;;;;;;9.75;5.85;;;16.30;84.10;;;;;;5052190;28;20579;-34
2022/10/25 10:53:04;;;;;;;7.07;5.90;;;16.40;84.00;;;;;;5052821;28;20025;-32
2022/10/25 10:55:31;;;;;;;7.05;5.30;;;16.50;84.00;;;;;;5051211;28;20104;-34
2022/10/25 10:58:17;;;;;;;7.82;5.10;;;16.50;83.90;;;;;;5052589;28;20056;-37
2022/10/25 11:00:54;;;;;;;9.25;5.75;;;16.70;83.80;;;;;;5052427;28;20053;-35
2022/10/25 11:03:41;;;;;;;7.32;5.03;;;16.70;83.60;;;;;;5052525;28;20096;-38
2022/10/25 11:06:12;;;;;;;7.80;5.43;;;16.90;83.40;;;;;;5052293;28;20021;-38
2022/10/25 11:08:42;;;;;;;6.97;4.60;;;16.90;83.20;;;;;;5052295;28;20041;-40
2022/10/25 11:11:21;;;;;;;7.07;4.90;;;17.00;83.10;;;;;;5052459;28;20013;-34
2022/10/25 11:13:57;;;;;;;7.57;4.97;;;17.00;82.80;;;;;;5052396;28;20021;-35
2022/10/25 11:16:55;;;;;;;9.75;5.80;;;17.00;82.80;;;;;;5052198;28;20029;-42
2022/10/25 11:19:45;;;;;;;11.77;5.80;;;17.00;82.80;;;;;;5050880;28;20029;-41
2022/10/25 11:22:17;;;;;;;8.70;4.95;;;16.90;82.60;;;;;;5051840;28;20025;-42
2022/10/25 11:24:42;;;;;;;8.98;5.40;;;16.90;82.60;;;;;;5052019;28;20025;-40
2022/10/25 11:27:35;;;;;;;8.70;5.05;;;16.90;82.70;;;;;;5052371;28;20047;-43
2022/10/25 11:30:16;;;;;;;6.97;4.40;;;16.90;82.50;;;;;;5052350;28;20083;-41
2022/10/25 11:33:07;;;;;;;8.65;4.35;;;16.90;82.20;;;;;;5051848;28;20063;-43
2022/10/25 11:35:43;;;;;;;7.30;4.57;;;17.00;82.10;;;;;;5051878;28;20543;-46
2022/10/25 11:38:27;;;;;;;5.07;4.38;;;16.90;82.10;;;;;;5051805;28;20021;-42
2022/10/25 11:41:28;;;;;;;9.93;5.00;;;16.90;82.10;;;;;;5052033;28;20338;-41
2022/10/25 11:44:16;;;;;;;6.38;5.03;;;16.80;82.00;;;;;;5051818;28;20017;-40
2022/10/25 11:46:54;;;;;;;9.48;5.30;;;16.80;81.90;;;;;;5051728;28;20025;-43
2022/10/25 11:49:54;;;;;;;11.80;5.00;;;16.70;81.80;;;;;;5051665;28;20017;-41
2022/10/25 11:52:36;;;;;;;8.63;4.65;;;16.80;82.00;;;;;;5044827;28;20127;-41
2022/10/25 11:55:12;;;;;;;5.28;4.00;;;16.70;82.00;;;;;;5051748;28;20462;-43
2022/10/25 11:57:56;;;;;;;8.13;4.40;;;16.80;81.90;;;;;;5051653;28;20021;-42
2022/10/25 12:00:28;;;;;;;7.60;3.95;;;16.90;81.60;;;;;;5051732;28;20048;-42
2022/10/25 12:02:56;;;;;;;6.32;3.45;;;17.00;81.30;;;;;;5055932;28;20024;-40
2022/10/25 12:05:22;;;;;;;5.65;3.40;;;17.20;81.10;;;;;;5055789;28;20521;-45
2022/10/25 12:07:52;;;;;;;6.25;3.70;;;17.30;80.70;;;;;;5055620;28;20106;-42
2022/10/25 12:10:28;;;;;;;7.45;3.58;;;17.40;80.40;;;;;;5055626;28;20070;-42
2022/10/25 12:13:01;;;;;;;8.93;4.07;;;17.40;80.20;;;;;;5055680;28;20077;-43
2022/10/25 12:15:37;;;;;;;9.35;4.03;;;17.40;80.10;;;;;;5055653;28;20677;-41
2022/10/25 12:18:05;;;;;;;7.72;3.95;;;17.50;80.00;;;;;;5055604;28;20021;-43
2022/10/25 12:20:32;;;;;;;7.20;4.20;;;17.60;79.90;;;;;;5055491;28;20104;-43
2022/10/25 12:23:02;;;;;;;6.93;3.85;;;17.60;79.60;;;;;;5055622;28;20036;-39
2022/10/25 12:25:38;;;;;;;8.25;4.05;;;17.60;79.60;;;;;;5055340;28;20024;-43
2022/10/25 12:28:22;;;;;;;5.47;3.40;;;17.70;79.40;;;;;;5054689;28;20020;-42
2022/10/25 12:30:49;;;;;;;8.10;4.47;;;17.70;79.40;;;;;;5054759;28;20028;-42
2022/10/25 12:33:23;;;;;;;6.00;4.00;;;17.70;79.10;;;;;;5054706;28;20078;-42
2022/10/25 12:35:53;;;;;;;5.63;3.30;;;17.60;79.10;;;;;;5054511;28;20095;-42
2022/10/25 12:38:39;;;;;;;4.55;3.08;;;17.70;79.10;;;;;;5054625;28;20025;-43
2022/10/25 12:41:20;;;;;;;6.80;3.40;;;17.70;78.70;;;;;;5054555;28;20099;-36
2022/10/25 12:44:06;;;;;;;4.90;3.10;;;17.80;78.60;;;;;;5054556;28;20027;-34
2022/10/25 12:47:06;;;;;;;7.75;3.47;;;17.90;78.20;;;;;;5054536;28;20033;-35
2022/10/25 12:49:56;;;;;;;8.43;4.03;;;17.90;78.00;;;;;;5054262;28;20029;-37
2022/10/25 12:52:56;;;;;;;5.43;3.40;;;17.70;78.00;;;;;;5054454;28;20451;-33
2022/10/25 12:55:27;;;;;;;4.45;3.55;;;17.60;78.30;;;;;;5054239;28;20074;-35
2022/10/25 12:57:58;;;;;;;4.82;3.70;;;17.60;78.60;;;;;;5054229;28;20021;-34
2022/10/25 13:00:27;;;;;;;5.65;3.47;;;17.50;78.80;;;;;;5053918;28;20049;-33
2022/10/25 13:03:08;;;;;;;3.97;3.40;;;17.50;78.90;;;;;;5054314;28;20032;-33
2022/10/25 13:05:49;;;;;;;6.07;3.70;;;17.50;78.80;;;;;;5054021;28;20409;-43